createdAt,value
2022-10-31T00:01:39.384Z,65.70
2022-10-31T00:04:07.158Z,65.90
2022-10-31T00:06:33.976Z,65.70
2022-10-31T00:09:04.773Z,65.70
2022-10-31T00:11:32.213Z,65.70
2022-10-31T00:14:00.581Z,65.70
2022-10-31T00:16:28.991Z,65.70
2022-10-31T00:19:02.224Z,65.70
2022-10-31T00:21:31.052Z,65.80
2022-10-31T00:24:00.022Z,65.80
2022-10-31T00:26:31.903Z,65.80
2022-10-31T00:29:00.230Z,66.20
2022-10-31T00:31:27.079Z,66.00
2022-10-31T00:33:53.908Z,66.00
2022-10-31T00:36:21.697Z,66.10
2022-10-31T00:38:49.349Z,66.20
2022-10-31T00:41:18.684Z,66.30
2022-10-31T00:43:45.954Z,66.40
2022-10-31T00:46:13.745Z,66.40
2022-10-31T00:48:40.794Z,66.30
2022-10-31T00:51:08.346Z,66.30
2022-10-31T00:53:35.666Z,66.30
2022-10-31T00:56:03.104Z,66.40
2022-10-31T00:58:29.971Z,66.40
2022-10-31T01:00:57.001Z,66.40
2022-10-31T01:03:31.726Z,66.30
2022-10-31T01:06:01.021Z,66.70
2022-10-31T01:08:28.990Z,66.20
2022-10-31T01:11:16.605Z,66.20
2022-10-31T01:13:44.880Z,66.70
2022-10-31T01:16:15.828Z,66.20
2022-10-31T01:18:42.610Z,66.30
2022-10-31T01:21:13.910Z,66.40
2022-10-31T01:23:41.580Z,65.90
2022-10-31T01:26:16.659Z,65.90
2022-10-31T01:28:59.132Z,66.20
2022-10-31T01:31:30.902Z,66.90
2022-10-31T01:33:58.995Z,66.30
2022-10-31T01:36:33.560Z,66.80
2022-10-31T01:39:16.029Z,66.40
2022-10-31T01:41:51.069Z,66.70
2022-10-31T01:44:17.778Z,66.50
2022-10-31T01:46:55.336Z,66.40
2022-10-31T01:49:34.729Z,66.60
2022-10-31T01:52:15.716Z,66.70
2022-10-31T01:54:49.589Z,66.90
2022-10-31T01:57:19.364Z,66.50
2022-10-31T02:00:00.117Z,66.00
2022-10-31T02:02:31.220Z,66.80
2022-10-31T02:05:02.269Z,66.40
2022-10-31T02:07:37.540Z,66.40
2022-10-31T02:10:05.084Z,66.80
2022-10-31T02:12:34.046Z,66.20
2022-10-31T02:15:01.351Z,66.40
2022-10-31T02:17:30.670Z,66.40
2022-10-31T02:20:12.285Z,66.50
2022-10-31T02:22:57.688Z,67.50
2022-10-31T02:26:05.821Z,66.60
2022-10-31T02:29:12.710Z,66.60
2022-10-31T02:32:14.590Z,67.00
2022-10-31T02:34:56.095Z,66.80
2022-10-31T02:37:50.750Z,67.10
2022-10-31T02:40:27.795Z,67.20
2022-10-31T02:43:22.872Z,66.60
2022-10-31T02:45:59.660Z,67.30
2022-10-31T02:48:32.090Z,66.60
2022-10-31T02:51:03.267Z,66.60
2022-10-31T02:53:38.146Z,66.60
2022-10-31T02:56:19.337Z,66.70
2022-10-31T02:59:02.589Z,66.80
2022-10-31T03:01:48.538Z,67.00
2022-10-31T03:04:41.916Z,66.60
2022-10-31T03:07:40.812Z,67.10
2022-10-31T03:10:47.004Z,67.10
2022-10-31T03:13:26.689Z,67.10
2022-10-31T03:16:10.233Z,66.80
2022-10-31T03:19:09.913Z,66.60
2022-10-31T03:21:56.667Z,67.00
2022-10-31T03:24:31.514Z,67.00
2022-10-31T03:27:01.236Z,66.60
2022-10-31T03:29:33.096Z,66.70
2022-10-31T03:32:07.420Z,66.80
2022-10-31T03:34:37.951Z,66.80
2022-10-31T03:37:10.099Z,66.80
2022-10-31T03:39:41.018Z,66.70
2022-10-31T03:42:12.376Z,66.80
2022-10-31T03:44:45.547Z,67.40
2022-10-31T03:47:13.261Z,66.50
2022-10-31T03:49:40.701Z,66.50
2022-10-31T03:52:37.149Z,66.60
2022-10-31T03:55:17.388Z,67.40
2022-10-31T03:58:01.398Z,67.10
2022-10-31T04:00:30.934Z,67.20
2022-10-31T04:03:04.952Z,66.70
2022-10-31T04:05:33.117Z,66.70
2022-10-31T04:08:02.667Z,66.70
2022-10-31T04:10:33.199Z,66.80
2022-10-31T04:13:08.366Z,66.80
2022-10-31T04:15:39.277Z,67.00
2022-10-31T04:18:07.035Z,66.50
2022-10-31T04:20:40.478Z,66.50
2022-10-31T04:23:25.131Z,66.80
2022-10-31T04:25:52.209Z,67.00
2022-10-31T04:30:52.229Z,66.80
2022-10-31T04:33:19.680Z,66.80
2022-10-31T04:35:47.059Z,66.90
2022-10-31T04:38:14.011Z,67.00
2022-10-31T04:40:40.990Z,67.10
2022-10-31T04:43:07.973Z,67.10
2022-10-31T04:45:34.999Z,67.00
2022-10-31T04:48:02.312Z,67.00
2022-10-31T04:50:29.357Z,67.00
2022-10-31T04:52:56.181Z,67.00
2022-10-31T04:55:22.956Z,67.00
2022-10-31T04:57:51.727Z,67.00
2022-10-31T05:00:22.177Z,67.00
2022-10-31T05:02:51.641Z,67.10
2022-10-31T05:05:22.829Z,67.10
2022-10-31T05:07:51.038Z,67.20
2022-10-31T05:10:26.452Z,67.20
2022-10-31T05:13:00.270Z,67.70
2022-10-31T05:15:29.177Z,67.40
2022-10-31T05:17:57.579Z,68.00
2022-10-31T05:20:30.239Z,67.50
2022-10-31T05:22:58.637Z,67.60
2022-10-31T05:25:28.365Z,67.70
2022-10-31T05:27:56.848Z,67.70
2022-10-31T05:30:30.859Z,67.60
2022-10-31T05:32:59.065Z,67.90
2022-10-31T05:35:30.502Z,67.60
2022-10-31T05:37:58.708Z,67.80
2022-10-31T05:40:27.469Z,67.70
2022-10-31T05:42:57.127Z,67.70
2022-10-31T05:45:24.351Z,67.70
2022-10-31T05:47:57.483Z,67.80
2022-10-31T05:50:27.364Z,68.10
2022-10-31T05:53:04.110Z,67.80
2022-10-31T05:55:31.935Z,68.10
2022-10-31T05:57:59.548Z,67.80
2022-10-31T06:00:28.047Z,67.90
2022-10-31T06:05:36.463Z,68.30
2022-10-31T06:08:04.060Z,67.90
2022-10-31T06:10:31.084Z,68.00
2022-10-31T06:12:58.023Z,68.10
2022-10-31T06:15:25.069Z,68.10
2022-10-31T06:18:04.410Z,68.30
2022-10-31T06:20:32.615Z,68.60
2022-10-31T06:23:00.215Z,68.20
2022-10-31T06:25:27.581Z,68.20
2022-10-31T06:27:55.210Z,68.30
2022-10-31T06:30:22.509Z,68.30
2022-10-31T06:32:50.780Z,68.50
2022-10-31T06:35:18.127Z,68.50
2022-10-31T06:37:53.642Z,68.50
2022-10-31T06:40:20.530Z,68.90
2022-10-31T06:42:47.356Z,68.60
2022-10-31T06:45:14.542Z,68.70
2022-10-31T06:47:56.730Z,68.70
2022-10-31T06:50:28.242Z,68.60
2022-10-31T06:52:59.687Z,68.50
2022-10-31T06:55:27.928Z,68.60
2022-10-31T06:58:03.085Z,68.60
2022-10-31T07:00:31.934Z,68.70
2022-10-31T07:03:08.792Z,68.60
2022-10-31T07:05:35.649Z,68.60
2022-10-31T07:08:09.768Z,68.60
2022-10-31T07:10:40.565Z,68.70
2022-10-31T07:13:13.299Z,68.60
2022-10-31T07:15:42.609Z,68.50
2022-10-31T07:18:12.827Z,68.40
2022-10-31T07:20:40.067Z,68.50
2022-10-31T07:23:07.171Z,68.40
2022-10-31T07:25:34.056Z,68.50
2022-10-31T07:28:01.123Z,68.50
2022-10-31T07:30:28.293Z,68.60
2022-10-31T07:32:56.456Z,68.80
2022-10-31T07:35:29.110Z,68.90
2022-10-31T07:37:57.368Z,69.00
2022-10-31T07:40:25.554Z,69.70
2022-10-31T07:42:54.450Z,69.60
2022-10-31T07:45:22.179Z,69.80
2022-10-31T07:47:53.808Z,70.80
2022-10-31T07:50:30.434Z,71.40
2022-10-31T07:53:00.502Z,71.40
2022-10-31T07:55:28.481Z,71.00
2022-10-31T07:58:08.427Z,71.30
2022-10-31T08:00:37.724Z,67.40
2022-10-31T08:03:14.188Z,69.60
2022-10-31T08:05:42.206Z,66.80
2022-10-31T08:08:09.661Z,67.50
2022-10-31T08:10:37.209Z,66.60
2022-10-31T08:13:13.348Z,65.60
2022-10-31T08:15:42.573Z,61.90
2022-10-31T08:18:15.723Z,64.00
2022-10-31T08:20:44.146Z,60.90
2022-10-31T08:23:13.652Z,62.80
2022-10-31T08:25:41.286Z,61.30
2022-10-31T08:28:11.748Z,60.80
2022-10-31T08:30:39.771Z,59.30
2022-10-31T08:33:16.658Z,59.30
2022-10-31T08:35:43.951Z,58.10
2022-10-31T08:38:13.558Z,57.70
2022-10-31T08:40:40.979Z,57.00
2022-10-31T08:43:14.915Z,57.00
2022-10-31T08:45:43.225Z,53.40
2022-10-31T08:48:16.220Z,55.60
2022-10-31T08:50:45.057Z,52.60
2022-10-31T08:53:20.201Z,54.10
2022-10-31T08:55:47.864Z,50.10
2022-10-31T08:58:21.586Z,52.60
2022-10-31T09:00:52.203Z,49.50
2022-10-31T09:03:26.285Z,51.10
2022-10-31T09:06:00.465Z,48.30
2022-10-31T09:08:30.423Z,48.70
2022-10-31T09:10:58.693Z,49.90
2022-10-31T09:13:28.157Z,49.20
2022-10-31T09:15:57.729Z,48.00
2022-10-31T09:18:28.854Z,47.80
2022-10-31T09:20:59.032Z,47.10
2022-10-31T09:23:25.924Z,47.10
2022-10-31T09:25:54.216Z,46.80
2022-10-31T09:28:24.475Z,47.00
2022-10-31T09:30:54.205Z,46.60
2022-10-31T09:33:22.184Z,46.10
2022-10-31T09:35:49.331Z,46.20
2022-10-31T09:38:20.414Z,46.20
2022-10-31T09:41:41.274Z,45.80
2022-10-31T09:44:40.576Z,45.10
2022-10-31T09:47:44.915Z,45.00
2022-10-31T09:50:22.267Z,45.70
2022-10-31T09:53:11.181Z,46.30
2022-10-31T09:55:44.997Z,46.50
2022-10-31T09:58:21.193Z,46.60
2022-10-31T10:00:49.357Z,46.10
2022-10-31T10:03:41.329Z,46.60
2022-10-31T10:06:24.269Z,46.50
2022-10-31T10:08:51.410Z,45.50
2022-10-31T10:12:14.009Z,46.80
2022-10-31T10:15:31.902Z,46.00
2022-10-31T10:18:19.401Z,45.70
2022-10-31T10:21:14.533Z,47.00
2022-10-31T10:24:31.792Z,45.30
2022-10-31T10:27:59.453Z,44.70
2022-10-31T10:30:45.707Z,45.80
2022-10-31T10:33:23.760Z,44.80
2022-10-31T10:36:05.233Z,45.20
2022-10-31T10:38:57.957Z,44.70
2022-10-31T10:41:34.307Z,45.60
2022-10-31T10:44:02.231Z,45.80
2022-10-31T10:47:07.894Z,45.90
2022-10-31T10:49:52.031Z,44.70
2022-10-31T10:52:50.169Z,44.70
2022-10-31T10:55:40.629Z,45.40
2022-10-31T10:58:12.040Z,45.00
2022-10-31T11:00:47.922Z,45.30
2022-10-31T11:03:16.544Z,45.30
2022-10-31T11:05:55.404Z,46.00
2022-10-31T11:08:34.585Z,46.20
2022-10-31T11:11:29.130Z,45.70
2022-10-31T11:14:21.470Z,45.80
2022-10-31T11:16:55.607Z,46.30
2022-10-31T11:19:28.364Z,46.90
2022-10-31T11:22:07.240Z,46.60
2022-10-31T11:24:41.548Z,47.50
2022-10-31T11:27:21.147Z,46.80
2022-10-31T11:29:48.277Z,46.80
2022-10-31T11:32:23.352Z,47.60
2022-10-31T11:34:58.184Z,47.20
2022-10-31T11:37:36.464Z,47.80
2022-10-31T11:40:07.770Z,47.90
2022-10-31T11:42:42.400Z,47.70
2022-10-31T11:45:24.694Z,47.60
2022-10-31T11:47:59.551Z,47.40
2022-10-31T11:50:39.536Z,47.80
2022-10-31T11:53:27.406Z,47.10
2022-10-31T11:56:21.328Z,46.90
2022-10-31T11:59:06.586Z,47.20
2022-10-31T12:01:34.487Z,47.20
2022-10-31T12:04:10.098Z,48.00
2022-10-31T12:06:39.610Z,47.20
2022-10-31T12:09:23.857Z,48.10
2022-10-31T12:12:14.525Z,47.30
2022-10-31T12:14:56.477Z,47.30
2022-10-31T12:17:34.795Z,48.20
2022-10-31T12:20:26.776Z,48.20
2022-10-31T12:23:21.901Z,47.10
2022-10-31T12:26:15.543Z,47.40
2022-10-31T12:29:07.257Z,47.40
2022-10-31T12:31:52.066Z,47.60
2022-10-31T12:34:49.842Z,47.70
2022-10-31T12:37:40.398Z,47.70
2022-10-31T12:40:32.017Z,47.90
2022-10-31T12:43:31.952Z,48.20
2022-10-31T12:46:01.571Z,48.00
2022-10-31T12:48:47.237Z,48.60
2022-10-31T12:51:25.189Z,48.00
2022-10-31T12:54:45.477Z,48.50
2022-10-31T12:57:43.424Z,47.80
2022-10-31T13:00:22.068Z,48.00
2022-10-31T13:03:21.813Z,48.20
2022-10-31T13:05:57.688Z,48.00
2022-10-31T13:08:46.563Z,48.30
2022-10-31T13:11:24.187Z,48.10
2022-10-31T13:14:17.629Z,48.50
2022-10-31T13:16:49.091Z,48.60
2022-10-31T13:19:38.187Z,48.80
2022-10-31T13:22:30.370Z,48.10
2022-10-31T13:25:04.551Z,48.30
2022-10-31T13:27:54.037Z,48.70
2022-10-31T13:30:24.070Z,48.80
2022-10-31T13:33:10.392Z,48.90
2022-10-31T13:35:59.504Z,48.90
2022-10-31T13:38:57.622Z,48.40
2022-10-31T13:41:49.468Z,48.80
2022-10-31T13:44:28.029Z,48.10
2022-10-31T13:46:58.227Z,48.30
2022-10-31T13:49:40.319Z,48.40
2022-10-31T13:52:13.306Z,47.80
2022-10-31T13:54:56.572Z,47.90
2022-10-31T13:57:48.979Z,48.20
2022-10-31T14:00:21.562Z,48.60
2022-10-31T14:02:58.779Z,48.50
2022-10-31T14:05:35.515Z,48.40
2022-10-31T14:08:16.265Z,48.90
2022-10-31T14:10:54.023Z,49.50
2022-10-31T14:13:42.161Z,48.80
2022-10-31T14:16:33.321Z,49.00
2022-10-31T14:19:19.309Z,49.20
2022-10-31T14:21:51.935Z,49.50
2022-10-31T14:24:24.872Z,49.90
2022-10-31T14:27:25.016Z,50.30
2022-10-31T14:29:51.932Z,50.00
2022-10-31T14:32:24.205Z,50.50
2022-10-31T14:34:50.913Z,50.50
2022-10-31T14:38:19.506Z,50.20
2022-10-31T14:41:40.621Z,49.80
2022-10-31T14:44:48.508Z,49.70
2022-10-31T14:47:32.416Z,49.80
2022-10-31T14:50:34.720Z,50.00
2022-10-31T14:53:07.279Z,50.10
2022-10-31T14:55:34.466Z,50.40
2022-10-31T14:58:08.332Z,50.60
2022-10-31T15:00:37.190Z,50.80
2022-10-31T15:03:26.018Z,50.90
2022-10-31T15:05:57.677Z,50.90
2022-10-31T15:08:52.642Z,51.00
2022-10-31T15:11:28.599Z,51.00
2022-10-31T15:13:58.610Z,51.20
2022-10-31T15:16:36.633Z,51.30
2022-10-31T15:19:13.025Z,51.50
2022-10-31T15:21:46.690Z,51.60
2022-10-31T15:24:19.346Z,51.80
2022-10-31T15:26:52.713Z,51.60
2022-10-31T15:29:25.642Z,51.70
2022-10-31T15:32:03.701Z,51.70
2022-10-31T15:34:44.532Z,51.70
2022-10-31T15:37:13.399Z,51.80
2022-10-31T15:39:40.914Z,51.40
2022-10-31T15:42:36.793Z,51.80
2022-10-31T15:45:28.078Z,52.10
2022-10-31T15:48:17.740Z,52.30
2022-10-31T15:50:57.529Z,52.70
2022-10-31T15:53:43.459Z,52.90
2022-10-31T15:56:20.457Z,53.00
2022-10-31T15:58:51.481Z,53.00
2022-10-31T16:01:29.597Z,53.20
2022-10-31T16:04:12.552Z,53.60
2022-10-31T16:06:40.172Z,53.70
2022-10-31T16:09:24.159Z,53.60
2022-10-31T16:11:51.869Z,54.50
2022-10-31T16:14:25.881Z,54.00
2022-10-31T16:16:57.612Z,54.20
2022-10-31T16:19:34.761Z,54.50
2022-10-31T16:22:36.670Z,54.80
2022-10-31T16:25:16.765Z,55.60
2022-10-31T16:27:54.462Z,55.00
2022-10-31T16:30:48.511Z,55.60
2022-10-31T16:33:37.012Z,56.00
2022-10-31T16:36:36.613Z,56.60
2022-10-31T16:39:04.357Z,56.50
2022-10-31T16:41:33.464Z,55.80
2022-10-31T16:44:05.244Z,56.20
2022-10-31T16:46:32.054Z,56.40
2022-10-31T16:48:58.823Z,56.40
2022-10-31T16:51:25.641Z,56.60
2022-10-31T16:53:54.345Z,56.90
2022-10-31T16:56:34.306Z,57.00
2022-10-31T16:59:04.838Z,58.40
2022-10-31T17:01:32.745Z,57.30
2022-10-31T17:03:59.811Z,57.30
2022-10-31T17:06:28.418Z,57.60
2022-10-31T17:08:55.593Z,57.80
2022-10-31T17:11:26.082Z,58.00
2022-10-31T17:13:54.885Z,58.20
2022-10-31T17:16:21.749Z,58.30
2022-10-31T17:18:48.734Z,58.40
2022-10-31T17:21:24.051Z,58.60
2022-10-31T17:23:51.368Z,59.90
2022-10-31T17:26:18.507Z,58.90
2022-10-31T17:28:45.576Z,59.00
2022-10-31T17:31:27.952Z,59.10
2022-10-31T17:34:02.661Z,60.40
2022-10-31T17:36:35.228Z,60.00
2022-10-31T17:39:03.477Z,59.30
2022-10-31T17:41:30.317Z,59.40
2022-10-31T17:43:58.262Z,59.60
2022-10-31T17:46:25.677Z,59.70
2022-10-31T17:48:52.592Z,59.80
2022-10-31T17:51:19.393Z,59.90
2022-10-31T17:53:46.260Z,60.00
2022-10-31T17:56:13.226Z,60.00
2022-10-31T17:58:40.225Z,60.20
2022-10-31T18:01:15.087Z,60.40
2022-10-31T18:03:57.597Z,60.60
2022-10-31T18:06:24.408Z,60.70
2022-10-31T18:08:51.253Z,60.60
2022-10-31T18:11:21.630Z,60.80
2022-10-31T18:13:54.977Z,61.10
2022-10-31T18:16:22.075Z,61.30
2022-10-31T18:19:00.730Z,60.90
2022-10-31T18:21:28.542Z,62.30
2022-10-31T18:23:56.960Z,61.10
2022-10-31T18:26:27.619Z,61.10
2022-10-31T18:28:54.914Z,61.50
2022-10-31T18:31:21.991Z,61.20
2022-10-31T18:33:48.808Z,61.40
2022-10-31T18:36:15.630Z,61.50
2022-10-31T18:38:46.654Z,61.50
2022-10-31T18:41:15.064Z,61.70
2022-10-31T18:43:42.624Z,61.70
2022-10-31T18:46:15.216Z,61.80
2022-10-31T18:48:44.489Z,62.10
2022-10-31T18:51:14.730Z,62.00
2022-10-31T18:53:41.596Z,62.00
2022-10-31T18:56:11.284Z,61.90
2022-10-31T18:58:38.301Z,62.20
2022-10-31T19:01:11.338Z,62.10
2022-10-31T19:03:39.299Z,62.70
2022-10-31T19:06:07.776Z,62.20
2022-10-31T19:08:35.997Z,62.30
2022-10-31T19:11:12.908Z,62.40
2022-10-31T19:13:41.661Z,63.50
2022-10-31T19:16:12.749Z,62.50
2022-10-31T19:18:41.876Z,62.70
2022-10-31T19:21:15.058Z,62.60
2022-10-31T19:23:42.950Z,62.90
2022-10-31T19:26:10.361Z,62.80
2022-10-31T19:28:39.779Z,62.80
2022-10-31T19:31:07.782Z,62.90
2022-10-31T19:33:36.348Z,62.90
2022-10-31T19:36:13.359Z,62.90
2022-10-31T19:38:45.121Z,64.00
2022-10-31T19:41:28.359Z,63.20
2022-10-31T19:43:58.474Z,63.90
2022-10-31T19:46:51.836Z,62.90
2022-10-31T19:49:12.386Z,62.90
2022-10-31T19:51:39.498Z,62.90
2022-10-31T19:54:07.746Z,63.00
2022-10-31T19:56:34.728Z,63.20
2022-10-31T19:59:03.147Z,63.20
2022-10-31T20:01:30.934Z,63.40
2022-10-31T20:03:57.924Z,63.50
2022-10-31T20:06:30.574Z,63.50
2022-10-31T20:08:57.885Z,63.60
2022-10-31T20:11:27.350Z,63.60
2022-10-31T20:13:59.058Z,63.70
2022-10-31T20:16:27.835Z,64.00
2022-10-31T20:18:55.409Z,63.70
2022-10-31T20:21:26.551Z,63.70
2022-10-31T20:23:59.950Z,63.90
2022-10-31T20:26:28.442Z,64.30
2022-10-31T20:29:00.485Z,63.80
2022-10-31T20:31:32.609Z,64.30
2022-10-31T20:33:59.501Z,64.20
2022-10-31T20:36:28.685Z,64.10
2022-10-31T20:38:55.643Z,64.20
2022-10-31T20:41:22.456Z,64.70
2022-10-31T20:43:49.404Z,64.20
2022-10-31T20:46:24.565Z,64.20
2022-10-31T20:48:52.565Z,64.90
2022-10-31T20:51:23.565Z,64.30
2022-10-31T20:53:53.260Z,64.50
2022-10-31T20:56:23.953Z,64.60
2022-10-31T20:58:51.389Z,64.70
2022-10-31T21:01:25.178Z,64.60
2022-10-31T21:03:53.216Z,64.90
2022-10-31T21:06:23.068Z,64.90
2022-10-31T21:08:51.308Z,65.00
2022-10-31T21:11:22.005Z,64.90
2022-10-31T21:13:49.967Z,65.20
2022-10-31T21:16:27.482Z,65.10
2022-10-31T21:18:55.109Z,65.70
2022-10-31T21:21:28.985Z,65.20
2022-10-31T21:24:03.001Z,65.50
2022-10-31T21:26:34.388Z,65.50
2022-10-31T21:29:03.790Z,65.40
2022-10-31T21:31:31.390Z,65.40
2022-10-31T21:33:58.454Z,65.40
2022-10-31T21:36:26.217Z,65.50
2022-10-31T21:38:55.257Z,65.60
2022-10-31T21:41:24.409Z,65.70
2022-10-31T21:43:55.821Z,65.70
2022-10-31T21:46:26.533Z,65.80
2022-10-31T21:48:54.768Z,65.90
2022-10-31T21:51:25.937Z,65.80
2022-10-31T21:54:12.266Z,65.90
2022-10-31T21:56:39.950Z,65.80
2022-10-31T21:59:07.357Z,65.70
2022-10-31T22:01:35.267Z,65.80
2022-10-31T22:04:03.113Z,65.80
2022-10-31T22:06:30.420Z,65.70
2022-10-31T22:09:03.279Z,65.60
2022-10-31T22:11:30.207Z,66.10
2022-10-31T22:14:00.356Z,65.60
2022-10-31T22:16:29.683Z,65.80
2022-10-31T22:19:00.400Z,65.60
2022-10-31T22:21:28.604Z,65.90
2022-10-31T22:24:03.317Z,65.70
2022-10-31T22:26:32.292Z,66.10
2022-10-31T22:29:02.115Z,65.80
2022-10-31T22:31:31.653Z,65.80
2022-10-31T22:33:59.180Z,65.90
2022-10-31T22:36:29.429Z,65.90
2022-10-31T22:38:59.889Z,66.10
2022-10-31T22:41:30.507Z,66.10
2022-10-31T22:43:58.274Z,66.10
2022-10-31T22:46:28.886Z,66.00
2022-10-31T22:48:59.897Z,66.20
2022-10-31T22:51:39.667Z,66.30
2022-10-31T22:54:14.495Z,66.40
2022-10-31T22:56:41.304Z,66.30
2022-10-31T22:59:14.761Z,66.10
2022-10-31T23:01:44.891Z,66.20
2022-10-31T23:04:13.293Z,66.10
2022-10-31T23:06:40.465Z,66.00
2022-10-31T23:09:08.494Z,66.10
2022-10-31T23:11:39.927Z,66.30
2022-10-31T23:14:14.003Z,66.40
2022-10-31T23:16:54.287Z,66.60
2022-10-31T23:19:28.194Z,66.60
2022-10-31T23:22:01.779Z,66.90
2022-10-31T23:24:39.873Z,67.20
2022-10-31T23:27:14.179Z,67.10
2022-10-31T23:29:52.726Z,67.30
2022-10-31T23:32:29.343Z,67.90
2022-10-31T23:35:08.816Z,66.80
2022-10-31T23:37:38.460Z,67.10
2022-10-31T23:40:08.701Z,66.70
2022-10-31T23:42:35.563Z,66.70
2022-10-31T23:45:02.739Z,66.70
2022-10-31T23:47:29.629Z,66.80
2022-10-31T23:49:56.412Z,66.80
2022-10-31T23:52:23.203Z,66.80
2022-10-31T23:54:50.029Z,66.80
2022-10-31T23:57:17.723Z,66.80
2022-10-31T23:59:44.911Z,67.30
